Time;durP1;ratioP1;P1;durP2;ratioP2;P2;SDS_P1;SDS_P2;PMS_P1;PMS_P2;Temp;Humidity;BMP_temperature;BMP_pressure;BME280_temperature;BME280_humidity;BME280_pressure;Samples;Min_cycle;Max_cycle;Signal;HPM_P1;HPM_P2
2024/03/18 00:00:15;;;;;;;21.80;14.98;;;;;;;;;;5112955;28;20023;-74
2024/03/18 00:02:42;;;;;;;19.80;13.85;;;;;;;;;;5111822;28;20027;-73
2024/03/18 00:05:09;;;;;;;22.08;16.27;;;;;;;;;;5112815;28;20027;-72
2024/03/18 00:07:35;;;;;;;23.77;15.23;;;;;;;;;;5112650;28;20040;-73
2024/03/18 00:10:02;;;;;;;30.33;18.83;;;;;;;;;;5112628;28;20043;-73
2024/03/18 00:12:28;;;;;;;14.75;10.10;;;;;;;;;;5113071;28;20023;-72
2024/03/18 00:14:54;;;;;;;20.50;13.88;;;;;;;;;;5112993;28;20028;-73
2024/03/18 00:17:20;;;;;;;16.52;11.27;;;;;;;;;;5111405;28;20447;-74
2024/03/18 00:19:46;;;;;;;22.95;16.38;;;;;;;;;;5113216;28;20058;-72
2024/03/18 00:22:12;;;;;;;16.52;11.88;;;;;;;;;;5111847;28;20491;-73
2024/03/18 00:24:38;;;;;;;20.40;13.18;;;;;;;;;;5111550;28;20027;-74
2024/03/18 00:27:06;;;;;;;22.92;16.45;;;;;;;;;;5112548;28;20077;-74
2024/03/18 00:29:32;;;;;;;23.45;16.08;;;;;;;;;;5111235;28;20495;-74
2024/03/18 00:31:58;;;;;;;18.50;12.45;;;;;;;;;;5113015;28;20028;-73
2024/03/18 00:34:24;;;;;;;23.77;14.32;;;;;;;;;;5111129;28;20024;-74
2024/03/18 00:36:50;;;;;;;22.08;16.13;;;;;;;;;;5112917;27;20027;-73
2024/03/18 00:39:16;;;;;;;22.20;14.50;;;;;;;;;;5111040;28;20383;-74
2024/03/18 00:41:48;;;;;;;18.65;12.93;;;;;;;;;;5112514;28;20031;-73
2024/03/18 00:44:15;;;;;;;22.95;16.67;;;;;;;;;;5112381;28;20015;-74
2024/03/18 00:46:43;;;;;;;20.38;12.98;;;;;;;;;;5112578;28;20024;-74
2024/03/18 00:49:09;;;;;;;20.60;15.02;;;;;;;;;;5111962;28;20494;-74
2024/03/18 00:51:35;;;;;;;17.48;13.48;;;;;;;;;;5112165;28;20406;-73
2024/03/18 00:54:02;;;;;;;20.33;14.77;;;;;;;;;;5112545;28;20584;-74
2024/03/18 00:56:28;;;;;;;23.77;17.88;;;;;;;;;;5112525;28;20397;-73
2024/03/18 00:58:55;;;;;;;23.35;16.83;;;;;;;;;;5111176;28;20028;-73
2024/03/18 01:01:22;;;;;;;17.88;12.07;;;;;;;;;;5112196;28;20051;-73
2024/03/18 01:03:48;;;;;;;16.65;10.93;;;;;;;;;;5112366;28;20069;-73
2024/03/18 01:06:14;;;;;;;21.42;15.40;;;;;;;;;;5111795;28;20391;-73
2024/03/18 01:08:40;;;;;;;21.08;13.13;;;;;;;;;;5112298;28;20043;-73
2024/03/18 01:11:06;;;;;;;23.85;15.98;;;;;;;;;;5112159;28;20459;-73
2024/03/18 01:13:34;;;;;;;18.33;11.77;;;;;;;;;;5112257;28;20531;-73
2024/03/18 01:16:00;;;;;;;23.17;17.45;;;;;;;;;;5112331;28;20551;-73
2024/03/18 01:18:27;;;;;;;25.92;16.73;;;;;;;;;;5112428;28;20265;-73
2024/03/18 01:20:53;;;;;;;22.45;16.48;;;;;;;;;;5110924;28;20015;-73
2024/03/18 01:23:19;;;;;;;25.83;18.40;;;;;;;;;;5112060;28;20475;-72
2024/03/18 01:25:45;;;;;;;20.63;14.57;;;;;;;;;;5112504;28;20034;-72
2024/03/18 01:28:11;;;;;;;27.85;18.02;;;;;;;;;;5111916;28;20035;-73
2024/03/18 01:30:37;;;;;;;27.02;17.80;;;;;;;;;;5112212;28;20019;-73
2024/03/18 01:33:03;;;;;;;24.55;17.27;;;;;;;;;;5110945;28;20028;-73
2024/03/18 01:35:33;;;;;;;20.75;15.60;;;;;;;;;;5115799;28;20034;-72
2024/03/18 01:37:59;;;;;;;22.25;14.93;;;;;;;;;;5114743;28;20378;-73
2024/03/18 01:40:25;;;;;;;16.75;12.35;;;;;;;;;;5115832;28;20023;-72
2024/03/18 01:42:51;;;;;;;27.73;16.88;;;;;;;;;;5115649;28;20024;-74
2024/03/18 01:45:21;;;;;;;21.70;17.42;;;;;;;;;;5114511;28;20027;-73
2024/03/18 01:47:48;;;;;;;26.60;18.17;;;;;;;;;;5115920;28;20081;-74
2024/03/18 01:50:14;;;;;;;23.20;15.85;;;;;;;;;;5115606;28;20100;-74
2024/03/18 01:52:40;;;;;;;20.98;14.25;;;;;;;;;;5116236;28;20019;-73
2024/03/18 01:55:06;;;;;;;24.90;16.80;;;;;;;;;;5115486;27;20027;-73
2024/03/18 01:57:32;;;;;;;22.17;15.63;;;;;;;;;;5115646;28;20023;-74
2024/03/18 01:59:59;;;;;;;24.08;17.38;;;;;;;;;;5115342;28;20030;-74
2024/03/18 02:02:26;;;;;;;24.17;16.05;;;;;;;;;;5113969;28;20030;-74
2024/03/18 02:04:52;;;;;;;24.95;16.67;;;;;;;;;;5114077;28;20383;-74
2024/03/18 02:07:22;;;;;;;22.50;14.52;;;;;;;;;;5114907;28;20048;-73
2024/03/18 02:09:49;;;;;;;18.98;14.65;;;;;;;;;;5115343;28;20062;-74
2024/03/18 02:12:15;;;;;;;18.67;14.30;;;;;;;;;;5115095;28;20141;-74
2024/03/18 02:14:44;;;;;;;23.23;16.00;;;;;;;;;;5115233;28;20027;-74
2024/03/18 02:17:10;;;;;;;24.63;16.52;;;;;;;;;;5115018;28;20023;-73
2024/03/18 02:19:36;;;;;;;21.73;15.63;;;;;;;;;;5115175;28;20023;-73
2024/03/18 02:22:05;;;;;;;28.38;20.17;;;;;;;;;;5115494;28;20340;-72
2024/03/18 02:24:31;;;;;;;23.17;16.52;;;;;;;;;;5113808;28;20072;-73
2024/03/18 02:27:04;;;;;;;25.52;17.75;;;;;;;;;;5115370;28;20468;-73
2024/03/18 02:29:30;;;;;;;32.42;18.95;;;;;;;;;;5114863;27;20034;-73
2024/03/18 02:31:56;;;;;;;23.23;18.65;;;;;;;;;;5114666;28;20020;-73
2024/03/18 02:34:22;;;;;;;28.85;19.42;;;;;;;;;;5114452;28;20031;-74
2024/03/18 02:36:48;;;;;;;21.50;16.83;;;;;;;;;;5114819;28;20015;-73
2024/03/18 02:39:14;;;;;;;26.40;18.08;;;;;;;;;;5113181;28;20499;-74
2024/03/18 02:41:40;;;;;;;28.65;19.10;;;;;;;;;;5114467;28;20042;-74
2024/03/18 02:44:10;;;;;;;29.27;19.75;;;;;;;;;;5113249;28;20024;-73
2024/03/18 02:46:37;;;;;;;26.05;18.70;;;;;;;;;;5112718;28;20019;-73
2024/03/18 02:49:03;;;;;;;26.92;19.63;;;;;;;;;;5113560;28;20575;-73
2024/03/18 02:51:29;;;;;;;30.00;20.23;;;;;;;;;;5116915;28;20028;-73
2024/03/18 02:53:55;;;;;;;30.55;21.00;;;;;;;;;;5114660;28;20024;-73
2024/03/18 02:56:21;;;;;;;17.52;12.13;;;;;;;;;;5112966;28;20378;-73
2024/03/18 02:58:47;;;;;;;29.58;19.55;;;;;;;;;;5113133;28;20028;-73
2024/03/18 03:01:13;;;;;;;29.83;19.85;;;;;;;;;;5112812;28;20023;-74
2024/03/18 03:03:39;;;;;;;33.70;24.42;;;;;;;;;;5114283;28;20023;-73
2024/03/18 03:06:07;;;;;;;29.77;20.27;;;;;;;;;;5113723;28;20059;-74
2024/03/18 03:08:33;;;;;;;38.58;23.10;;;;;;;;;;5113949;28;20107;-73
2024/03/18 03:11:04;;;;;;;38.33;25.88;;;;;;;;;;5112835;28;20024;-73
2024/03/18 03:13:30;;;;;;;30.05;20.35;;;;;;;;;;5114036;28;20348;-74
2024/03/18 03:15:56;;;;;;;34.40;22.27;;;;;;;;;;5112745;28;20444;-73
2024/03/18 03:18:22;;;;;;;30.75;21.63;;;;;;;;;;5113826;28;20103;-73
2024/03/18 03:20:48;;;;;;;26.33;17.02;;;;;;;;;;5113730;28;20360;-73
2024/03/18 03:23:14;;;;;;;26.88;19.70;;;;;;;;;;5112428;28;20272;-73
2024/03/18 03:25:43;;;;;;;29.77;19.02;;;;;;;;;;5113835;28;20095;-73
2024/03/18 03:28:10;;;;;;;29.98;20.75;;;;;;;;;;5112333;28;20024;-72
2024/03/18 03:30:37;;;;;;;32.20;21.75;;;;;;;;;;5113771;28;20023;-73
2024/03/18 03:33:04;;;;;;;31.73;22.60;;;;;;;;;;5113755;28;20455;-74
2024/03/18 03:35:30;;;;;;;38.05;24.83;;;;;;;;;;5112228;28;20467;-74
2024/03/18 03:37:57;;;;;;;43.33;28.10;;;;;;;;;;5113623;28;20178;-74
2024/03/18 03:40:23;;;;;;;31.92;21.88;;;;;;;;;;5113346;28;20065;-73
2024/03/18 03:42:49;;;;;;;32.60;21.30;;;;;;;;;;5113165;28;20020;-73
2024/03/18 03:45:16;;;;;;;32.75;23.60;;;;;;;;;;5112018;28;20034;-74
2024/03/18 03:47:42;;;;;;;28.27;19.08;;;;;;;;;;5112027;28;20358;-74
2024/03/18 03:50:10;;;;;;;30.88;21.23;;;;;;;;;;5111597;28;20027;-72
2024/03/18 03:52:36;;;;;;;29.33;21.20;;;;;;;;;;5111811;28;20440;-72
2024/03/18 03:55:02;;;;;;;26.48;19.27;;;;;;;;;;5113114;28;20024;-72
2024/03/18 03:57:28;;;;;;;32.42;22.95;;;;;;;;;;5111433;28;20021;-73
2024/03/18 03:59:55;;;;;;;36.65;22.35;;;;;;;;;;5113102;28;20028;-73
2024/03/18 04:02:21;;;;;;;35.55;21.90;;;;;;;;;;5113331;28;20016;-73
2024/03/18 04:04:47;;;;;;;40.05;23.42;;;;;;;;;;5111932;28;20123;-73
2024/03/18 04:07:16;;;;;;;30.65;21.70;;;;;;;;;;5112958;28;20127;-72
2024/03/18 04:09:42;;;;;;;34.72;22.92;;;;;;;;;;5112908;28;20024;-73
2024/03/18 04:12:08;;;;;;;36.72;22.70;;;;;;;;;;5112854;28;20088;-72
2024/03/18 04:14:35;;;;;;;29.73;20.50;;;;;;;;;;5113057;28;20019;-73
2024/03/18 04:17:10;;;;;;;37.60;23.52;;;;;;;;;;5111855;28;20348;-73
2024/03/18 04:19:36;;;;;;;38.75;26.38;;;;;;;;;;5112911;28;20108;-74
2024/03/18 04:22:02;;;;;;;31.27;22.35;;;;;;;;;;5111575;28;20023;-73
2024/03/18 04:24:28;;;;;;;36.97;23.95;;;;;;;;;;5111297;28;20022;-73
2024/03/18 04:26:55;;;;;;;35.90;23.45;;;;;;;;;;5111469;28;20030;-73
2024/03/18 04:29:21;;;;;;;32.40;22.38;;;;;;;;;;5111211;28;20172;-73
2024/03/18 04:31:47;;;;;;;29.38;20.00;;;;;;;;;;5112842;28;20020;-73
2024/03/18 04:34:13;;;;;;;36.75;24.25;;;;;;;;;;5112515;28;20026;-73
2024/03/18 04:36:39;;;;;;;43.60;28.63;;;;;;;;;;5112449;28;20460;-72
2024/03/18 04:39:05;;;;;;;33.38;23.55;;;;;;;;;;5111531;28;20359;-73
2024/03/18 04:41:32;;;;;;;40.17;25.00;;;;;;;;;;5111738;28;20052;-73
2024/03/18 04:43:58;;;;;;;43.13;28.92;;;;;;;;;;5113109;28;20039;-73
2024/03/18 04:46:24;;;;;;;49.20;29.60;;;;;;;;;;5113551;28;20019;-74
2024/03/18 04:48:50;;;;;;;39.33;27.00;;;;;;;;;;5111172;28;20036;-73
2024/03/18 04:51:16;;;;;;;36.30;23.38;;;;;;;;;;5112292;28;20023;-73
2024/03/18 04:53:42;;;;;;;40.42;25.65;;;;;;;;;;5112579;28;20420;-73
2024/03/18 04:56:08;;;;;;;31.50;22.52;;;;;;;;;;5110847;28;20051;-72
2024/03/18 04:58:34;;;;;;;36.65;23.20;;;;;;;;;;5112500;28;20031;-73
2024/03/18 05:01:01;;;;;;;31.83;20.45;;;;;;;;;;5112235;28;20089;-74
2024/03/18 05:03:27;;;;;;;37.80;24.90;;;;;;;;;;5112231;28;20022;-73
2024/03/18 05:05:53;;;;;;;41.60;28.13;;;;;;;;;;5110915;28;20047;-72
2024/03/18 05:08:19;;;;;;;37.97;22.92;;;;;;;;;;5113014;28;20131;-72
2024/03/18 05:10:45;;;;;;;33.45;22.33;;;;;;;;;;5116486;28;20255;-73
2024/03/18 05:13:11;;;;;;;37.03;25.23;;;;;;;;;;5115978;28;20035;-73
2024/03/18 05:15:37;;;;;;;41.08;26.30;;;;;;;;;;5115084;28;20027;-73
2024/03/18 05:18:03;;;;;;;34.55;22.95;;;;;;;;;;5116392;28;20027;-73
2024/03/18 05:20:30;;;;;;;41.60;28.05;;;;;;;;;;5116115;28;20081;-74
2024/03/18 05:22:56;;;;;;;41.58;27.95;;;;;;;;;;5116365;28;20035;-73
2024/03/18 05:25:22;;;;;;;31.92;22.20;;;;;;;;;;5116067;28;20016;-74
2024/03/18 05:27:48;;;;;;;35.67;24.52;;;;;;;;;;5116515;28;20054;-73
2024/03/18 05:30:14;;;;;;;34.63;22.50;;;;;;;;;;5114405;28;20332;-72
2024/03/18 05:32:40;;;;;;;36.92;24.30;;;;;;;;;;5116022;28;20059;-72
2024/03/18 05:35:07;;;;;;;45.03;28.98;;;;;;;;;;5114764;28;20215;-72
2024/03/18 05:37:33;;;;;;;38.17;25.60;;;;;;;;;;5114462;28;20028;-73
2024/03/18 05:40:03;;;;;;;39.63;25.23;;;;;;;;;;5114665;28;20027;-72
2024/03/18 05:42:30;;;;;;;39.25;25.67;;;;;;;;;;5115294;28;20032;-73
2024/03/18 05:44:56;;;;;;;37.30;23.67;;;;;;;;;;5114541;28;20027;-73
2024/03/18 05:47:22;;;;;;;42.55;28.25;;;;;;;;;;5113984;28;20446;-73
2024/03/18 05:49:48;;;;;;;44.58;28.77;;;;;;;;;;5115632;28;20031;-74
2024/03/18 05:52:14;;;;;;;42.90;26.60;;;;;;;;;;5115599;28;20374;-73
2024/03/18 05:54:40;;;;;;;42.75;25.85;;;;;;;;;;5114070;28;20015;-74
2024/03/18 05:57:06;;;;;;;42.67;26.77;;;;;;;;;;5114386;28;20034;-74
2024/03/18 05:59:32;;;;;;;40.70;25.15;;;;;;;;;;5115062;28;20080;-75
2024/03/18 06:01:58;;;;;;;38.78;26.20;;;;;;;;;;5115205;28;20463;-75
2024/03/18 06:04:24;;;;;;;36.97;23.80;;;;;;;;;;5115139;28;20391;-76
2024/03/18 06:06:50;;;;;;;45.25;26.08;;;;;;;;;;5113813;28;20047;-74
2024/03/18 06:09:17;;;;;;;32.45;21.60;;;;;;;;;;5115141;28;20479;-74
2024/03/18 06:11:43;;;;;;;42.17;26.17;;;;;;;;;;5114483;28;20122;-74
2024/03/18 06:14:11;;;;;;;35.75;23.38;;;;;;;;;;5114071;28;20034;-73
2024/03/18 06:16:37;;;;;;;41.90;25.45;;;;;;;;;;5115387;28;20027;-73
2024/03/18 06:19:04;;;;;;;38.35;23.75;;;;;;;;;;5115172;28;20028;-72
2024/03/18 06:21:39;;;;;;;41.05;27.30;;;;;;;;;;5112493;28;20024;-74
2024/03/18 06:24:09;;;;;;;39.00;25.48;;;;;;;;;;5115048;28;20023;-73
2024/03/18 06:26:35;;;;;;;39.67;24.95;;;;;;;;;;5114790;28;20064;-73
2024/03/18 06:29:01;;;;;;;36.55;23.23;;;;;;;;;;5113569;28;20035;-73
2024/03/18 06:31:27;;;;;;;41.30;24.77;;;;;;;;;;5113077;28;20020;-74
2024/03/18 06:33:53;;;;;;;42.50;27.65;;;;;;;;;;5115105;28;20038;-72
2024/03/18 06:36:20;;;;;;;43.08;26.15;;;;;;;;;;5116495;28;20487;-71
2024/03/18 06:38:46;;;;;;;47.15;28.58;;;;;;;;;;5114918;28;20031;-73
2024/03/18 06:41:13;;;;;;;33.28;21.60;;;;;;;;;;5114564;28;20105;-74
2024/03/18 06:43:39;;;;;;;49.35;27.90;;;;;;;;;;5113486;28;20051;-74
2024/03/18 06:46:05;;;;;;;39.60;25.30;;;;;;;;;;5113130;28;20019;-73
2024/03/18 06:48:32;;;;;;;47.97;28.05;;;;;;;;;;5113822;28;20027;-73
2024/03/18 06:50:59;;;;;;;42.42;26.63;;;;;;;;;;5114235;28;20016;-73
2024/03/18 06:53:25;;;;;;;43.33;24.40;;;;;;;;;;5113764;28;20027;-74
2024/03/18 06:55:51;;;;;;;27.85;18.13;;;;;;;;;;5113682;28;20020;-73
2024/03/18 06:58:21;;;;;;;39.53;24.95;;;;;;;;;;5113707;28;20031;-73
2024/03/18 07:00:47;;;;;;;31.30;21.40;;;;;;;;;;5114253;28;20066;-73
2024/03/18 07:03:13;;;;;;;49.30;27.70;;;;;;;;;;5112705;28;20032;-74
2024/03/18 07:05:40;;;;;;;38.28;23.83;;;;;;;;;;5114224;28;20044;-74
2024/03/18 07:08:06;;;;;;;45.90;29.30;;;;;;;;;;5114147;28;20023;-74
2024/03/18 07:10:32;;;;;;;41.97;25.75;;;;;;;;;;5112529;28;20020;-74
2024/03/18 07:12:58;;;;;;;39.95;25.33;;;;;;;;;;5113982;28;20031;-73
2024/03/18 07:15:25;;;;;;;36.85;24.38;;;;;;;;;;5112489;28;20031;-73
2024/03/18 07:17:51;;;;;;;43.47;26.65;;;;;;;;;;5113612;28;20102;-73
2024/03/18 07:20:17;;;;;;;43.65;24.70;;;;;;;;;;5113364;28;20024;-74
2024/03/18 07:22:43;;;;;;;36.38;24.45;;;;;;;;;;5112425;28;20497;-73
2024/03/18 07:25:11;;;;;;;42.75;24.70;;;;;;;;;;5112428;28;20027;-73
2024/03/18 07:27:38;;;;;;;38.80;24.40;;;;;;;;;;5113224;28;20016;-74
2024/03/18 07:30:05;;;;;;;37.08;22.65;;;;;;;;;;5113661;28;20535;-74
2024/03/18 07:32:31;;;;;;;40.95;25.92;;;;;;;;;;5113056;28;20024;-74
2024/03/18 07:34:57;;;;;;;50.20;27.20;;;;;;;;;;5113744;28;20072;-74
2024/03/18 07:37:24;;;;;;;37.85;23.63;;;;;;;;;;5112108;28;20482;-73
2024/03/18 07:39:50;;;;;;;40.75;25.80;;;;;;;;;;5112364;28;20028;-74
2024/03/18 07:42:16;;;;;;;35.95;24.77;;;;;;;;;;5111981;28;20027;-73
2024/03/18 07:44:42;;;;;;;41.05;25.80;;;;;;;;;;5111900;28;20027;-73
2024/03/18 07:47:11;;;;;;;41.63;24.52;;;;;;;;;;5113281;28;20023;-73
2024/03/18 07:49:38;;;;;;;37.17;22.33;;;;;;;;;;5113252;28;20052;-73
2024/03/18 07:52:04;;;;;;;42.47;26.42;;;;;;;;;;5113294;28;20272;-73
2024/03/18 07:54:31;;;;;;;50.92;26.70;;;;;;;;;;5113124;28;20023;-72
2024/03/18 07:56:57;;;;;;;37.17;23.27;;;;;;;;;;5113307;28;20375;-73
2024/03/18 07:59:23;;;;;;;39.25;25.65;;;;;;;;;;5113032;28;20020;-73
2024/03/18 08:01:50;;;;;;;37.00;23.95;;;;;;;;;;5113163;28;20039;-73
2024/03/18 08:04:16;;;;;;;43.75;25.95;;;;;;;;;;5111568;28;20069;-73
2024/03/18 08:06:46;;;;;;;41.67;28.27;;;;;;;;;;5113041;28;20047;-73
2024/03/18 08:09:12;;;;;;;42.03;28.25;;;;;;;;;;5112729;28;20023;-73
2024/03/18 08:11:40;;;;;;;43.05;27.48;;;;;;;;;;5092379;28;20054;-73
2024/03/18 08:14:06;;;;;;;44.28;28.40;;;;;;;;;;5092411;28;20020;-73
2024/03/18 08:16:33;;;;;;;39.40;26.50;;;;;;;;;;5092600;28;20112;-73
2024/03/18 08:18:59;;;;;;;41.35;26.00;;;;;;;;;;5092937;28;20035;-72
2024/03/18 08:21:25;;;;;;;36.40;23.35;;;;;;;;;;5092969;28;20016;-73
2024/03/18 08:23:51;;;;;;;39.47;24.50;;;;;;;;;;5092434;28;20114;-73
2024/03/18 08:26:18;;;;;;;36.22;23.33;;;;;;;;;;5092549;28;20460;-73
2024/03/18 08:28:44;;;;;;;38.25;25.88;;;;;;;;;;5093121;28;20035;-72
2024/03/18 08:31:10;;;;;;;38.58;23.85;;;;;;;;;;5091751;28;20028;-72
2024/03/18 08:33:36;;;;;;;35.45;23.17;;;;;;;;;;5092213;28;20032;-72
2024/03/18 08:36:03;;;;;;;37.85;24.55;;;;;;;;;;5092294;28;20024;-72
2024/03/18 08:38:29;;;;;;;40.47;23.98;;;;;;;;;;5090726;28;20038;-73
2024/03/18 08:40:56;;;;;;;36.67;25.48;;;;;;;;;;5090907;28;20081;-72
2024/03/18 08:43:22;;;;;;;32.78;23.90;;;;;;;;;;5091182;28;20501;-73
2024/03/18 08:45:52;;;;;;;36.72;24.38;;;;;;;;;;5092223;28;20024;-73
2024/03/18 08:48:18;;;;;;;34.28;23.50;;;;;;;;;;5092083;28;20016;-73
2024/03/18 08:50:44;;;;;;;32.67;21.70;;;;;;;;;;5090760;28;20032;-73
2024/03/18 08:53:12;;;;;;;30.17;21.90;;;;;;;;;;5090749;28;20499;-72
2024/03/18 08:55:38;;;;;;;31.73;20.75;;;;;;;;;;5091860;28;20027;-72
2024/03/18 08:58:04;;;;;;;29.35;19.38;;;;;;;;;;5092101;28;20031;-73
2024/03/18 09:00:30;;;;;;;31.20;20.77;;;;;;;;;;5091874;28;20059;-74
2024/03/18 09:02:57;;;;;;;34.13;20.95;;;;;;;;;;5092080;28;20027;-73
2024/03/18 09:05:23;;;;;;;39.55;24.00;;;;;;;;;;5090419;28;20027;-74
2024/03/18 09:07:49;;;;;;;32.67;21.52;;;;;;;;;;5090742;28;20051;-73
2024/03/18 09:10:16;;;;;;;33.60;23.45;;;;;;;;;;5092042;28;20056;-74
2024/03/18 09:12:42;;;;;;;36.50;23.10;;;;;;;;;;5091474;28;20059;-72
2024/03/18 09:15:08;;;;;;;34.95;20.23;;;;;;;;;;5079385;28;20028;-72
2024/03/18 09:17:34;;;;;;;41.92;24.77;;;;;;;;;;5078632;28;20040;-73
2024/03/18 09:20:00;;;;;;;39.60;24.23;;;;;;;;;;5089955;28;20028;-72
2024/03/18 09:22:26;;;;;;;40.65;26.40;;;;;;;;;;5091046;28;20028;-74
2024/03/18 09:24:53;;;;;;;36.60;21.15;;;;;;;;;;5090165;28;20060;-73
2024/03/18 09:27:19;;;;;;;40.05;24.88;;;;;;;;;;5091726;28;20024;-72
2024/03/18 09:29:45;;;;;;;39.70;23.35;;;;;;;;;;5091546;28;20471;-72
2024/03/18 09:32:11;;;;;;;46.33;26.25;;;;;;;;;;5091818;28;20364;-73
2024/03/18 09:34:38;;;;;;;41.55;25.70;;;;;;;;;;5091563;28;20497;-73
2024/03/18 09:37:04;;;;;;;40.03;25.48;;;;;;;;;;5091826;28;20103;-73
2024/03/18 09:39:30;;;;;;;43.65;26.50;;;;;;;;;;5091562;28;20021;-73
2024/03/18 09:41:56;;;;;;;42.30;25.85;;;;;;;;;;5091424;28;20012;-73
2024/03/18 09:44:22;;;;;;;27.23;15.02;;;;;;;;;;5091784;28;20024;-73
2024/03/18 09:46:49;;;;;;;38.47;23.20;;;;;;;;;;5090343;28;20043;-73
2024/03/18 09:49:16;;;;;;;40.38;23.95;;;;;;;;;;5091311;28;20031;-73
2024/03/18 09:51:45;;;;;;;39.72;23.90;;;;;;;;;;5091386;28;20020;-73
2024/03/18 09:54:14;;;;;;;35.03;21.73;;;;;;;;;;5090841;28;20070;-73
2024/03/18 09:56:41;;;;;;;32.80;21.67;;;;;;;;;;5094709;28;20361;-73
2024/03/18 09:59:08;;;;;;;38.97;24.75;;;;;;;;;;5095223;28;20467;-74
2024/03/18 10:01:35;;;;;;;38.05;21.98;;;;;;;;;;5094740;28;20519;-73
2024/03/18 10:04:01;;;;;;;36.03;21.90;;;;;;;;;;5093757;28;20024;-73
2024/03/18 10:06:27;;;;;;;37.92;24.10;;;;;;;;;;5094499;28;20106;-74
2024/03/18 10:08:53;;;;;;;35.38;20.65;;;;;;;;;;5095092;28;20032;-73
2024/03/18 10:11:23;;;;;;;36.78;21.10;;;;;;;;;;5095340;28;20103;-73
2024/03/18 10:13:49;;;;;;;24.33;17.70;;;;;;;;;;5095667;28;20027;-74
2024/03/18 10:16:15;;;;;;;33.38;20.88;;;;;;;;;;5095610;28;20027;-73
2024/03/18 10:18:41;;;;;;;33.58;21.33;;;;;;;;;;5095090;28;20035;-73
2024/03/18 10:21:09;;;;;;;32.80;19.27;;;;;;;;;;5095783;28;20024;-73
2024/03/18 10:23:35;;;;;;;26.15;17.05;;;;;;;;;;5094594;28;20027;-73
2024/03/18 10:26:01;;;;;;;30.80;21.33;;;;;;;;;;5094782;28;20110;-73
2024/03/18 10:28:27;;;;;;;31.55;20.30;;;;;;;;;;5093090;28;20115;-73
2024/03/18 10:30:56;;;;;;;28.77;17.77;;;;;;;;;;5094402;28;20100;-73
2024/03/18 10:33:24;;;;;;;23.95;15.27;;;;;;;;;;5094639;28;20157;-73
2024/03/18 10:35:51;;;;;;;25.67;17.50;;;;;;;;;;5094653;28;20098;-73
2024/03/18 10:38:23;;;;;;;22.77;14.93;;;;;;;;;;5094477;28;20036;-73
2024/03/18 10:40:53;;;;;;;25.50;16.48;;;;;;;;;;5093151;28;20024;-73
2024/03/18 10:43:31;;;;;;;28.42;15.75;;;;;;;;;;5094720;28;20085;-74
2024/03/18 10:45:57;;;;;;;25.48;15.57;;;;;;;;;;5092957;28;20472;-73
2024/03/18 10:48:23;;;;;;;27.08;16.35;;;;;;;;;;5092874;28;20471;-73
2024/03/18 10:50:50;;;;;;;26.45;15.13;;;;;;;;;;5094261;28;20064;-73
2024/03/18 10:53:21;;;;;;;22.52;14.75;;;;;;;;;;5094186;28;20066;-72
2024/03/18 10:55:52;;;;;;;21.45;13.35;;;;;;;;;;5093917;28;20031;-73
2024/03/18 10:58:20;;;;;;;22.58;14.70;;;;;;;;;;5094095;28;20023;-74
2024/03/18 11:00:46;;;;;;;22.02;15.27;;;;;;;;;;5093761;28;20027;-74
2024/03/18 11:03:14;;;;;;;23.40;15.27;;;;;;;;;;5092595;28;20028;-75
2024/03/18 11:05:46;;;;;;;27.27;15.10;;;;;;;;;;5091559;28;20105;-74
2024/03/18 11:08:12;;;;;;;30.15;18.67;;;;;;;;;;5093564;28;20043;-74
2024/03/18 11:10:39;;;;;;;25.45;15.88;;;;;;;;;;5092214;28;20077;-75
2024/03/18 11:13:08;;;;;;;28.98;17.35;;;;;;;;;;5092456;28;20418;-76
2024/03/18 11:15:34;;;;;;;26.00;17.48;;;;;;;;;;5092286;28;20035;-74
2024/03/18 11:18:04;;;;;;;29.60;18.67;;;;;;;;;;5093765;28;20012;-73
2024/03/18 11:20:30;;;;;;;35.58;20.70;;;;;;;;;;5093495;28;20103;-74
2024/03/18 11:22:57;;;;;;;35.85;19.98;;;;;;;;;;5093569;28;20048;-74
2024/03/18 11:25:27;;;;;;;34.35;18.85;;;;;;;;;;5093857;28;20016;-72
2024/03/18 11:27:54;;;;;;;36.33;20.83;;;;;;;;;;5093513;28;20024;-73
2024/03/18 11:30:28;;;;;;;36.55;21.38;;;;;;;;;;5092129;28;20032;-73
2024/03/18 11:32:54;;;;;;;35.90;22.02;;;;;;;;;;5093375;28;20042;-73
2024/03/18 11:35:20;;;;;;;38.47;22.35;;;;;;;;;;5092027;28;20032;-73
2024/03/18 11:37:46;;;;;;;37.65;20.48;;;;;;;;;;5093127;28;20023;-73
2024/03/18 11:40:15;;;;;;;33.30;18.20;;;;;;;;;;5093356;28;20032;-72
2024/03/18 11:42:42;;;;;;;21.60;11.32;;;;;;;;;;5091482;28;20463;-74
2024/03/18 11:45:16;;;;;;;25.05;14.70;;;;;;;;;;5093214;28;20028;-73
2024/03/18 11:47:42;;;;;;;25.35;16.08;;;;;;;;;;5091616;28;20069;-73
2024/03/18 11:50:10;;;;;;;18.55;11.55;;;;;;;;;;5091723;28;20024;-73
2024/03/18 11:52:36;;;;;;;25.67;14.80;;;;;;;;;;5093110;28;20073;-74
2024/03/18 11:55:04;;;;;;;26.13;14.38;;;;;;;;;;5091713;28;20470;-73
2024/03/18 11:57:31;;;;;;;22.65;10.40;;;;;;;;;;5092936;28;20063;-74
2024/03/18 11:59:57;;;;;;;16.60;7.63;;;;;;;;;;5093259;28;20020;-73
2024/03/18 12:02:23;;;;;;;12.40;5.07;;;;;;;;;;5091424;28;20115;-73
2024/03/18 12:04:49;;;;;;;16.38;8.98;;;;;;;;;;5092580;28;20056;-74
2024/03/18 12:07:15;;;;;;;23.30;12.52;;;;;;;;;;5091262;28;20090;-74
2024/03/18 12:09:42;;;;;;;23.42;12.32;;;;;;;;;;5092424;28;20032;-74
2024/03/18 12:12:08;;;;;;;24.90;12.70;;;;;;;;;;5093049;28;20020;-74
2024/03/18 12:14:34;;;;;;;20.63;10.77;;;;;;;;;;5092363;28;20024;-74
2024/03/18 12:17:01;;;;;;;19.83;9.32;;;;;;;;;;5092281;28;20096;-74
2024/03/18 12:19:27;;;;;;;21.02;10.30;;;;;;;;;;5092636;28;20024;-73
2024/03/18 12:21:53;;;;;;;20.02;9.13;;;;;;;;;;5090898;28;20039;-73
2024/03/18 12:29:58;;;;;;;19.95;9.50;;;;;;;;;;5092217;28;20182;-73
2024/03/18 12:32:25;;;;;;;20.38;8.77;;;;;;;;;;5092497;28;20016;-73
2024/03/18 12:34:51;;;;;;;24.75;10.68;;;;;;;;;;5090778;28;20051;-74
2024/03/18 12:37:17;;;;;;;21.35;10.45;;;;;;;;;;5092403;28;20062;-74
2024/03/18 12:39:46;;;;;;;20.67;10.13;;;;;;;;;;5090775;28;20471;-74
2024/03/18 12:42:16;;;;;;;24.83;10.60;;;;;;;;;;5090899;28;20582;-74
2024/03/18 12:44:43;;;;;;;19.90;10.18;;;;;;;;;;5091822;28;20371;-74
2024/03/18 12:47:10;;;;;;;22.38;10.95;;;;;;;;;;5092430;28;20070;-74
2024/03/18 12:49:36;;;;;;;13.00;6.20;;;;;;;;;;5092183;28;20024;-74
2024/03/18 12:52:03;;;;;;;22.08;10.05;;;;;;;;;;5092380;28;20028;-74
2024/03/18 12:54:29;;;;;;;18.73;10.00;;;;;;;;;;5090974;28;20020;-74
2024/03/18 12:56:56;;;;;;;20.77;9.43;;;;;;;;;;5091572;28;20024;-74
2024/03/18 12:59:22;;;;;;;23.58;8.73;;;;;;;;;;5092104;28;20028;-74
2024/03/18 13:01:49;;;;;;;23.30;8.73;;;;;;;;;;5090584;28;20024;-74
2024/03/18 13:04:15;;;;;;;23.23;9.73;;;;;;;;;;5090745;28;20028;-74
2024/03/18 13:06:41;;;;;;;31.33;9.20;;;;;;;;;;5091867;28;20055;-74
2024/03/18 13:09:08;;;;;;;19.65;7.28;;;;;;;;;;5091630;28;20414;-74
2024/03/18 13:11:34;;;;;;;16.73;7.65;;;;;;;;;;5090777;28;20060;-73
2024/03/18 13:14:00;;;;;;;20.52;6.55;;;;;;;;;;5091829;28;20081;-73
2024/03/18 13:16:26;;;;;;;13.90;5.68;;;;;;;;;;5091752;28;20032;-74
2024/03/18 13:18:52;;;;;;;10.65;4.63;;;;;;;;;;5090447;28;20031;-74
2024/03/18 13:21:18;;;;;;;11.25;3.83;;;;;;;;;;5091909;28;20016;-74
2024/03/18 13:23:44;;;;;;;10.80;3.90;;;;;;;;;;5091631;28;20039;-75
2024/03/18 13:26:11;;;;;;;16.92;5.18;;;;;;;;;;5091683;28;20039;-74
2024/03/18 13:28:37;;;;;;;18.52;4.88;;;;;;;;;;5091463;28;20024;-75
2024/03/18 13:31:06;;;;;;;17.42;5.45;;;;;;;;;;5094086;28;20024;-74
2024/03/18 13:33:32;;;;;;;17.25;4.88;;;;;;;;;;5095645;28;20020;-74
2024/03/18 13:35:58;;;;;;;12.57;4.55;;;;;;;;;;5095187;28;20081;-74
2024/03/18 13:38:24;;;;;;;13.05;4.72;;;;;;;;;;5095477;28;20444;-74
2024/03/18 13:40:50;;;;;;;13.45;3.38;;;;;;;;;;5095538;28;20028;-74
2024/03/18 13:43:18;;;;;;;11.23;2.95;;;;;;;;;;5095193;28;20459;-74
2024/03/18 13:45:51;;;;;;;18.55;3.47;;;;;;;;;;5093894;28;20078;-75
2024/03/18 13:48:17;;;;;;;9.10;2.17;;;;;;;;;;5095350;28;20070;-75
2024/03/18 13:50:45;;;;;;;13.82;3.03;;;;;;;;;;5093725;28;20476;-75
2024/03/18 13:53:11;;;;;;;9.75;2.80;;;;;;;;;;5094024;28;20035;-73
2024/03/18 13:55:37;;;;;;;10.43;3.05;;;;;;;;;;5095336;28;20490;-75
2024/03/18 13:58:03;;;;;;;10.82;2.78;;;;;;;;;;5094164;28;20020;-74
2024/03/18 14:00:29;;;;;;;16.02;2.90;;;;;;;;;;5095189;28;20123;-74
2024/03/18 14:02:55;;;;;;;12.20;2.65;;;;;;;;;;5095782;28;20024;-75
2024/03/18 14:05:21;;;;;;;10.40;1.95;;;;;;;;;;5096116;28;20031;-75
2024/03/18 14:07:48;;;;;;;10.88;2.10;;;;;;;;;;5095089;28;20452;-75
2024/03/18 14:10:14;;;;;;;3.35;1.00;;;;;;;;;;5093739;28;20040;-75
2024/03/18 14:12:40;;;;;;;7.38;1.33;;;;;;;;;;5093632;28;20379;-74
2024/03/18 14:15:07;;;;;;;7.53;1.55;;;;;;;;;;5094865;28;20016;-74
2024/03/18 14:17:36;;;;;;;7.13;1.27;;;;;;;;;;5093431;28;20116;-75
2024/03/18 14:20:08;;;;;;;3.95;0.85;;;;;;;;;;5093303;28;20471;-75